Time;durP1;ratioP1;P1;durP2;ratioP2;P2;SDS_P1;SDS_P2;PMS_P1;PMS_P2;Temp;Humidity;BMP_temperature;BMP_pressure;BME280_temperature;BME280_humidity;BME280_pressure;Samples;Min_cycle;Max_cycle;Signal;HPM_P1;HPM_P2
2022/11/22 00:02:14;;;;;;;14.40;6.50;;;6.30;99.90;;;;;;5110823;28;20050;-77
2022/11/22 00:04:40;;;;;;;11.18;5.00;;;6.30;99.90;;;;;;5113382;28;20102;-78
2022/11/22 00:07:05;;;;;;;11.13;5.32;;;6.40;99.90;;;;;;5096529;28;20084;-78
2022/11/22 00:09:31;;;;;;;14.60;5.65;;;6.30;99.90;;;;;;5113716;28;20027;-77
2022/11/22 00:11:56;;;;;;;13.50;5.80;;;6.30;99.90;;;;;;5112826;28;20483;-77
2022/11/22 00:14:23;;;;;;;11.23;4.88;;;6.30;99.90;;;;;;5114373;28;20096;-71
2022/11/22 00:16:49;;;;;;;12.57;5.35;;;6.40;99.90;;;;;;5083672;28;20085;-70
2022/11/22 00:19:14;;;;;;;10.63;5.28;;;6.30;99.90;;;;;;5094088;28;20036;-74
2022/11/22 00:21:40;;;;;;;10.15;4.65;;;6.30;99.90;;;;;;5103383;28;20028;-68
2022/11/22 00:24:06;;;;;;;13.57;5.38;;;6.40;99.90;;;;;;5097311;28;20024;-64
2022/11/22 00:26:31;;;;;;;13.05;6.57;;;6.40;99.90;;;;;;5097451;28;20036;-76
2022/11/22 00:28:57;;;;;;;10.32;5.50;;;6.40;99.90;;;;;;5114654;28;20023;-73
2022/11/22 00:31:22;;;;;;;12.63;5.30;;;6.40;99.90;;;;;;5110937;28;20019;-62
2022/11/22 00:33:48;;;;;;;11.32;4.93;;;6.40;99.90;;;;;;5113204;28;20391;-77
2022/11/22 00:36:16;;;;;;;12.85;5.40;;;6.40;99.90;;;;;;5097713;28;20551;-61
2022/11/22 00:38:42;;;;;;;10.68;5.40;;;6.40;99.90;;;;;;5094015;28;20089;-77
2022/11/22 00:41:07;;;;;;;11.30;4.10;;;6.40;99.90;;;;;;5093984;28;20097;-71
2022/11/22 00:43:33;;;;;;;9.23;4.88;;;6.50;99.90;;;;;;5093166;28;20473;-76
2022/11/22 00:45:59;;;;;;;8.82;4.97;;;6.50;99.90;;;;;;5094086;28;20031;-78
2022/11/22 00:48:24;;;;;;;9.55;5.18;;;6.50;99.90;;;;;;5093270;28;20024;-71
2022/11/22 00:50:50;;;;;;;10.45;4.80;;;6.50;99.90;;;;;;5093143;28;20032;-76
2022/11/22 00:53:16;;;;;;;12.27;5.40;;;6.50;99.90;;;;;;5075263;28;20012;-78
2022/11/22 00:55:41;;;;;;;13.18;5.53;;;6.50;99.90;;;;;;5075313;28;20044;-60
2022/11/22 00:58:07;;;;;;;8.13;4.78;;;6.60;99.90;;;;;;5057779;28;20017;-75
2022/11/22 01:00:33;;;;;;;12.32;5.22;;;6.50;99.90;;;;;;5092592;28;20028;-77
2022/11/22 01:02:59;;;;;;;12.85;5.35;;;6.60;99.90;;;;;;5092741;28;20048;-78
2022/11/22 01:05:24;;;;;;;8.23;4.60;;;6.60;99.90;;;;;;5092177;28;20066;-75
2022/11/22 01:07:50;;;;;;;10.98;5.07;;;6.70;99.90;;;;;;5079299;28;20102;-78
2022/11/22 01:10:16;;;;;;;9.55;5.22;;;6.70;99.90;;;;;;5110284;28;20019;-78
2022/11/22 01:12:41;;;;;;;9.35;4.63;;;6.70;99.90;;;;;;5112128;28;20098;-69
2022/11/22 01:15:07;;;;;;;7.60;5.07;;;6.70;99.90;;;;;;5111768;28;20044;-70
2022/11/22 01:17:33;;;;;;;8.60;4.57;;;6.70;99.90;;;;;;5109725;28;20084;-75
2022/11/22 01:19:58;;;;;;;9.48;4.18;;;6.80;99.90;;;;;;5090779;28;20499;-77
2022/11/22 01:22:24;;;;;;;11.27;4.85;;;6.80;99.90;;;;;;5092106;28;20031;-77
2022/11/22 01:24:49;;;;;;;14.18;6.30;;;6.80;99.90;;;;;;5092908;28;20024;-77
2022/11/22 01:27:15;;;;;;;15.43;6.63;;;6.80;99.90;;;;;;5089394;28;20067;-77
2022/11/22 01:29:41;;;;;;;12.52;6.15;;;6.80;99.90;;;;;;5091765;28;20047;-70
2022/11/22 01:32:06;;;;;;;13.75;7.55;;;6.90;99.90;;;;;;5092305;28;20031;-75
2022/11/22 01:34:32;;;;;;;13.00;5.25;;;6.90;99.90;;;;;;5092775;28;20058;-76
2022/11/22 01:36:57;;;;;;;12.70;5.28;;;6.90;99.90;;;;;;5093969;28;20031;-77
2022/11/22 01:39:23;;;;;;;15.40;5.55;;;6.90;99.90;;;;;;5092948;28;20016;-74
2022/11/22 01:41:49;;;;;;;15.18;5.70;;;6.90;99.90;;;;;;5111844;28;20450;-78
2022/11/22 01:44:29;;;;;;;14.75;5.38;;;6.90;99.90;;;;;;5112585;28;20020;-76
2022/11/22 01:46:56;;;;;;;12.98;5.38;;;7.00;99.90;;;;;;5071179;28;20107;-75
2022/11/22 01:49:28;;;;;;;13.57;6.03;;;7.00;99.90;;;;;;5071886;28;20067;-71
2022/11/22 01:51:58;;;;;;;12.18;6.55;;;7.00;99.90;;;;;;5071816;28;20036;-77
2022/11/22 01:54:28;;;;;;;15.43;7.30;;;7.00;99.90;;;;;;5070862;28;20108;-78
2022/11/22 01:56:57;;;;;;;12.82;5.18;;;6.90;99.90;;;;;;5112142;28;20494;-78
2022/11/22 01:59:27;;;;;;;10.25;4.95;;;6.90;99.90;;;;;;5111299;28;20020;-63
2022/11/22 02:01:53;;;;;;;9.35;4.70;;;7.00;99.90;;;;;;5111270;28;20016;-79
2022/11/22 02:04:21;;;;;;;9.35;4.85;;;7.00;99.90;;;;;;5094097;28;20486;-78
2022/11/22 02:06:58;;;;;;;11.75;5.55;;;7.00;99.90;;;;;;5107022;28;20114;-78
2022/11/22 02:09:25;;;;;;;10.80;5.50;;;6.90;99.90;;;;;;5111214;28;20054;-77
2022/11/22 02:11:54;;;;;;;11.02;6.30;;;6.90;99.90;;;;;;5110541;28;20384;-78
2022/11/22 02:14:26;;;;;;;12.00;5.50;;;6.80;99.90;;;;;;5111805;28;20016;-75
2022/11/22 02:16:52;;;;;;;11.48;6.32;;;6.80;99.90;;;;;;5110328;28;20494;-78
2022/11/22 02:19:40;;;;;;;13.35;5.97;;;6.70;99.90;;;;;;5112113;28;20448;-78
2022/11/22 02:22:17;;;;;;;10.60;6.32;;;6.60;99.90;;;;;;5108010;28;20024;-78
2022/11/22 02:25:11;;;;;;;15.15;7.47;;;6.50;99.90;;;;;;5089279;28;20020;-77
2022/11/22 02:27:37;;;;;;;13.70;6.32;;;6.40;99.90;;;;;;5079629;28;20456;-79
2022/11/22 02:30:02;;;;;;;17.50;7.60;;;6.30;99.90;;;;;;5111096;28;20076;-79
2022/11/22 02:32:28;;;;;;;13.68;7.80;;;6.30;99.90;;;;;;5111823;28;20077;-73
2022/11/22 02:34:54;;;;;;;14.02;8.18;;;6.30;99.90;;;;;;5102866;28;20559;-78
2022/11/22 02:37:24;;;;;;;18.25;9.57;;;6.40;99.90;;;;;;5111474;28;20040;-72
2022/11/22 02:40:01;;;;;;;19.77;9.43;;;6.40;99.90;;;;;;5111761;28;20077;-79
2022/11/22 02:42:29;;;;;;;19.17;10.38;;;6.40;99.90;;;;;;5111204;28;20054;-77
2022/11/22 02:44:54;;;;;;;19.63;9.13;;;6.40;99.90;;;;;;5108770;28;20055;-78
2022/11/22 02:47:20;;;;;;;17.38;9.90;;;6.40;99.90;;;;;;5110511;28;20074;-75
2022/11/22 02:49:46;;;;;;;19.05;9.70;;;6.30;99.90;;;;;;5108030;28;20031;-79
2022/11/22 02:52:16;;;;;;;23.10;11.35;;;6.30;99.90;;;;;;5092447;28;20027;-78
2022/11/22 02:54:41;;;;;;;18.48;9.57;;;6.30;99.90;;;;;;5108153;28;20043;-75
2022/11/22 02:57:07;;;;;;;21.88;9.57;;;6.30;99.90;;;;;;5108312;28;20092;-74
2022/11/22 02:59:32;;;;;;;19.73;9.88;;;6.30;99.90;;;;;;5096693;28;20024;-78
2022/11/22 03:01:58;;;;;;;15.73;8.50;;;6.20;99.90;;;;;;5070808;28;20174;-79
2022/11/22 03:04:24;;;;;;;22.85;10.20;;;6.20;99.90;;;;;;5068668;28;20032;-77
2022/11/22 03:06:51;;;;;;;21.85;10.30;;;6.20;99.90;;;;;;5072258;28;20016;-76
2022/11/22 03:09:17;;;;;;;21.92;10.73;;;6.10;99.90;;;;;;5090765;28;20111;-78
2022/11/22 03:11:42;;;;;;;22.77;9.32;;;6.10;99.90;;;;;;5089981;28;20107;-69
2022/11/22 03:14:08;;;;;;;14.48;8.77;;;6.10;99.90;;;;;;5090786;28;20032;-78
2022/11/22 03:16:33;;;;;;;18.70;10.38;;;6.10;99.90;;;;;;5106325;28;20052;-78
2022/11/22 03:18:59;;;;;;;17.98;9.18;;;6.10;99.90;;;;;;5110628;28;20041;-78
2022/11/22 03:21:24;;;;;;;17.63;8.88;;;6.20;99.90;;;;;;5090202;28;20055;-79
2022/11/22 03:23:50;;;;;;;24.35;10.10;;;6.20;99.90;;;;;;5111145;28;20023;-78
2022/11/22 03:26:15;;;;;;;25.00;9.95;;;6.20;99.90;;;;;;5106745;28;20098;-78
2022/11/22 03:28:41;;;;;;;22.17;10.38;;;6.20;99.90;;;;;;5090143;28;20028;-78
2022/11/22 03:31:07;;;;;;;22.42;9.55;;;6.20;99.90;;;;;;5090178;28;20085;-78
2022/11/22 03:33:36;;;;;;;18.35;9.27;;;6.20;99.90;;;;;;5089254;28;20103;-78
2022/11/22 03:36:02;;;;;;;18.45;8.07;;;6.20;99.90;;;;;;5100334;28;20036;-78
2022/11/22 03:38:28;;;;;;;17.42;7.72;;;6.20;99.90;;;;;;5110386;28;20027;-78
2022/11/22 03:40:53;;;;;;;21.83;8.07;;;6.30;99.90;;;;;;5110038;28;20031;-78
2022/11/22 03:43:20;;;;;;;17.17;7.50;;;6.30;99.90;;;;;;5087961;28;20016;-76
2022/11/22 03:45:46;;;;;;;15.23;7.30;;;6.30;99.90;;;;;;5105667;28;20031;-71
2022/11/22 03:48:12;;;;;;;15.60;7.22;;;6.30;99.90;;;;;;5109509;28;20030;-76
2022/11/22 03:50:37;;;;;;;23.15;8.25;;;6.20;99.90;;;;;;5110345;28;20085;-77
2022/11/22 03:53:03;;;;;;;15.45;6.85;;;6.20;99.90;;;;;;5108079;28;20020;-77
2022/11/22 03:55:29;;;;;;;15.73;6.13;;;6.10;99.90;;;;;;5097260;28;20043;-79
2022/11/22 03:57:54;;;;;;;12.95;6.03;;;6.10;99.90;;;;;;5108861;28;20024;-76
2022/11/22 04:00:20;;;;;;;16.83;6.28;;;6.10;99.90;;;;;;5109969;28;20100;-78
2022/11/22 04:02:46;;;;;;;16.02;6.65;;;6.00;99.90;;;;;;5109886;28;20024;-71
2022/11/22 04:05:11;;;;;;;17.73;6.57;;;6.00;99.90;;;;;;5107738;28;20024;-71
2022/11/22 04:07:37;;;;;;;12.15;5.47;;;6.00;99.90;;;;;;5109631;28;20027;-76
2022/11/22 04:10:04;;;;;;;12.20;5.57;;;6.00;99.90;;;;;;5091056;28;20023;-78
2022/11/22 04:12:30;;;;;;;18.20;5.80;;;6.00;99.90;;;;;;5069827;28;20020;-78
2022/11/22 04:15:08;;;;;;;11.27;5.22;;;6.00;99.90;;;;;;5085379;28;20036;-79
2022/11/22 04:17:40;;;;;;;18.23;5.35;;;6.00;99.90;;;;;;5070949;28;20082;-79
2022/11/22 04:23:17;;;;;;;13.95;4.95;;;6.00;99.90;;;;;;5110755;28;20049;-78
2022/11/22 04:25:48;;;;;;;16.02;6.70;;;6.00;99.90;;;;;;5110941;28;20095;-75
2022/11/22 04:28:17;;;;;;;13.45;5.47;;;6.00;99.90;;;;;;5114249;28;20036;-78
2022/11/22 04:33:28;;;;;;;14.23;4.28;;;5.90;99.90;;;;;;5115166;28;20034;-81
2022/11/22 04:35:54;;;;;;;13.45;4.65;;;5.80;99.90;;;;;;5112890;28;20028;-80
2022/11/22 04:38:20;;;;;;;10.43;3.38;;;5.80;99.90;;;;;;5114973;28;20016;-71
2022/11/22 04:40:46;;;;;;;11.25;4.35;;;5.80;99.90;;;;;;5114664;28;20055;-73
2022/11/22 04:46:08;;;;;;;11.98;4.68;;;5.70;99.90;;;;;;5103484;28;20050;-71
2022/11/22 04:48:34;;;;;;;13.00;3.97;;;5.70;99.90;;;;;;5094004;28;20024;-75
2022/11/22 04:53:44;;;;;;;9.10;2.50;;;5.50;99.90;;;;;;5094797;28;20036;-66
2022/11/22 04:56:10;;;;;;;7.82;2.85;;;5.50;99.90;;;;;;5094870;28;20503;-65
2022/11/22 04:58:36;;;;;;;10.60;3.08;;;5.40;99.90;;;;;;5093894;28;20020;-61
2022/11/22 05:01:02;;;;;;;8.32;2.40;;;5.40;99.90;;;;;;5094630;28;20438;-73
2022/11/22 05:03:28;;;;;;;8.70;2.70;;;5.30;99.90;;;;;;5076624;28;20465;-69
2022/11/22 05:05:53;;;;;;;7.15;2.97;;;5.30;99.90;;;;;;5094706;28;20028;-66
2022/11/22 05:08:19;;;;;;;7.50;2.30;;;5.20;99.90;;;;;;5094983;28;20043;-71
2022/11/22 05:10:56;;;;;;;13.40;3.97;;;5.20;99.90;;;;;;5094251;28;20077;-76
2022/11/22 05:13:41;;;;;;;7.80;2.80;;;5.20;99.90;;;;;;5095148;28;20019;-68
2022/11/22 05:16:10;;;;;;;9.80;3.03;;;5.20;99.90;;;;;;5094509;28;20048;-73
2022/11/22 05:18:36;;;;;;;9.82;2.92;;;5.20;99.90;;;;;;5094151;28;20016;-72
2022/11/22 05:21:07;;;;;;;16.98;5.82;;;5.20;99.90;;;;;;5094985;28;20357;-61
2022/11/22 05:26:17;;;;;;;23.58;6.28;;;5.10;99.90;;;;;;5094708;28;20073;-78
2022/11/22 05:28:43;;;;;;;18.92;4.93;;;5.10;99.90;;;;;;5076483;28;20115;-74
2022/11/22 05:31:11;;;;;;;18.70;5.80;;;5.10;99.90;;;;;;5094492;28;20058;-77
2022/11/22 05:33:39;;;;;;;14.75;5.50;;;5.10;99.90;;;;;;5093812;28;20043;-77
2022/11/22 05:36:05;;;;;;;13.95;4.32;;;5.10;99.90;;;;;;5094536;28;20067;-75
2022/11/22 05:38:34;;;;;;;14.13;4.90;;;5.10;99.90;;;;;;5076166;28;20017;-77
2022/11/22 05:41:00;;;;;;;15.75;5.60;;;5.10;99.90;;;;;;5075859;28;20357;-73
2022/11/22 05:43:26;;;;;;;11.10;3.92;;;5.00;99.90;;;;;;5094401;28;20038;-77
2022/11/22 05:45:52;;;;;;;11.77;3.90;;;5.00;99.90;;;;;;5093695;28;20468;-73
2022/11/22 05:48:17;;;;;;;7.88;4.13;;;4.90;99.90;;;;;;5094547;28;20024;-77
2022/11/22 05:50:43;;;;;;;12.27;4.70;;;4.90;99.90;;;;;;5094438;28;20023;-75
2022/11/22 05:53:08;;;;;;;16.13;4.93;;;4.90;99.90;;;;;;5093683;28;20028;-68
2022/11/22 05:55:34;;;;;;;10.93;4.40;;;4.90;99.90;;;;;;5093867;28;20024;-72
2022/11/22 05:58:00;;;;;;;8.48;4.00;;;4.80;99.90;;;;;;5072764;28;20028;-74
2022/11/22 06:00:26;;;;;;;15.02;5.05;;;4.80;99.90;;;;;;5091183;28;20012;-73
2022/11/22 06:02:52;;;;;;;22.48;5.18;;;4.70;99.90;;;;;;5100462;28;20023;-71
2022/11/22 06:05:17;;;;;;;11.98;4.10;;;4.70;99.90;;;;;;5108853;28;20093;-63
2022/11/22 06:07:43;;;;;;;14.02;4.90;;;4.70;99.90;;;;;;5093283;28;20035;-73
2022/11/22 06:10:10;;;;;;;12.52;4.47;;;4.70;99.90;;;;;;5093579;28;20031;-68
2022/11/22 06:12:36;;;;;;;10.82;4.13;;;4.60;99.90;;;;;;5098614;28;20027;-73
2022/11/22 06:15:02;;;;;;;17.02;4.95;;;4.60;99.90;;;;;;5113313;28;20058;-69
2022/11/22 06:17:27;;;;;;;13.98;4.25;;;4.60;99.90;;;;;;5113926;28;20096;-73
2022/11/22 06:19:53;;;;;;;14.80;5.78;;;4.50;99.90;;;;;;5095835;28;20481;-74
2022/11/22 06:22:18;;;;;;;9.10;4.38;;;4.50;99.90;;;;;;5098307;28;20024;-74
2022/11/22 06:24:44;;;;;;;10.57;3.33;;;4.50;99.90;;;;;;5099635;28;20042;-70
2022/11/22 06:27:09;;;;;;;11.77;3.53;;;4.50;99.90;;;;;;5098046;28;20027;-76
2022/11/22 06:29:35;;;;;;;13.85;3.38;;;4.40;99.90;;;;;;5111686;28;20058;-75
2022/11/22 06:32:00;;;;;;;9.95;2.78;;;4.40;99.90;;;;;;5094909;28;20057;-76
2022/11/22 06:34:27;;;;;;;9.68;2.85;;;4.40;99.90;;;;;;5094511;28;20116;-76
2022/11/22 06:36:53;;;;;;;9.65;2.63;;;4.30;99.90;;;;;;5103200;28;20475;-77
2022/11/22 06:39:18;;;;;;;11.10;3.17;;;4.30;99.90;;;;;;5092350;28;20051;-77
2022/11/22 06:41:44;;;;;;;6.25;2.95;;;4.20;99.90;;;;;;5097065;28;20059;-76
2022/11/22 06:44:09;;;;;;;12.57;3.72;;;4.20;99.90;;;;;;5112103;28;20020;-77
2022/11/22 06:46:36;;;;;;;12.75;4.45;;;4.20;99.90;;;;;;5115437;28;20386;-77
2022/11/22 06:49:02;;;;;;;10.38;5.13;;;4.20;99.90;;;;;;5106969;28;20035;-74
2022/11/22 06:51:30;;;;;;;9.38;3.35;;;4.20;99.90;;;;;;5110845;28;20028;-68
2022/11/22 06:53:57;;;;;;;11.57;4.22;;;4.20;99.90;;;;;;5107046;28;20028;-73
2022/11/22 06:56:25;;;;;;;9.20;3.53;;;4.10;99.90;;;;;;5100412;28;20051;-73
2022/11/22 06:58:51;;;;;;;14.07;4.15;;;4.10;99.90;;;;;;5089265;28;20055;-72
2022/11/22 07:01:25;;;;;;;10.50;3.33;;;4.10;99.90;;;;;;5111681;28;20440;-68
2022/11/22 07:03:56;;;;;;;8.05;3.20;;;4.10;99.90;;;;;;5110114;28;20035;-78
2022/11/22 07:06:23;;;;;;;13.57;3.33;;;4.00;99.90;;;;;;5111668;28;20020;-71
2022/11/22 07:08:49;;;;;;;11.50;3.35;;;4.00;99.90;;;;;;5106323;28;20028;-72
2022/11/22 07:11:17;;;;;;;9.77;3.25;;;4.00;99.90;;;;;;5098743;28;20034;-71
2022/11/22 07:13:43;;;;;;;9.38;4.00;;;4.00;99.90;;;;;;5091065;28;20028;-72
2022/11/22 07:16:11;;;;;;;10.70;3.65;;;4.00;99.90;;;;;;5099471;28;20519;-65
2022/11/22 07:18:38;;;;;;;10.80;4.85;;;4.00;99.90;;;;;;5098927;28;20162;-70
2022/11/22 07:21:06;;;;;;;11.32;4.55;;;3.90;99.90;;;;;;5091510;28;20055;-66
2022/11/22 07:23:32;;;;;;;11.48;3.33;;;3.90;99.90;;;;;;5106514;28;20357;-69
2022/11/22 07:25:57;;;;;;;9.95;3.38;;;3.90;99.90;;;;;;5113323;28;20031;-77
2022/11/22 07:28:23;;;;;;;10.77;3.92;;;3.90;99.90;;;;;;5113693;28;20457;-75
2022/11/22 07:30:49;;;;;;;10.40;3.65;;;3.90;99.90;;;;;;5094921;28;20168;-73
2022/11/22 07:33:15;;;;;;;13.55;4.10;;;3.90;99.90;;;;;;5108343;28;20422;-74
2022/11/22 07:35:41;;;;;;;9.20;4.18;;;3.90;99.90;;;;;;5108775;28;20043;-73
2022/11/22 07:38:06;;;;;;;16.92;5.13;;;3.90;99.90;;;;;;5113181;28;20099;-75
2022/11/22 07:40:32;;;;;;;12.32;4.75;;;4.00;99.90;;;;;;5112227;28;20401;-74
2022/11/22 07:42:58;;;;;;;12.23;4.95;;;4.00;99.90;;;;;;5113119;28;20108;-71
2022/11/22 07:45:23;;;;;;;11.90;4.97;;;4.00;99.90;;;;;;5112390;28;20392;-76
2022/11/22 07:47:49;;;;;;;16.15;5.28;;;4.00;99.90;;;;;;5112995;28;20095;-75
2022/11/22 07:50:15;;;;;;;20.90;6.50;;;4.10;99.90;;;;;;5113052;28;20020;-71
2022/11/22 07:52:41;;;;;;;21.63;6.05;;;4.10;99.90;;;;;;5112271;28;20024;-75
2022/11/22 07:55:06;;;;;;;13.93;5.28;;;4.20;99.90;;;;;;5113016;28;20027;-74
2022/11/22 07:57:32;;;;;;;12.88;5.50;;;4.40;99.90;;;;;;5113712;28;20032;-75
2022/11/22 07:59:58;;;;;;;13.88;4.78;;;4.60;99.90;;;;;;5116192;28;20463;-75
2022/11/22 08:02:24;;;;;;;11.77;3.83;;;4.70;99.90;;;;;;5116960;28;20030;-74
2022/11/22 08:04:50;;;;;;;14.35;4.18;;;4.90;99.90;;;;;;5117081;28;20090;-75
2022/11/22 08:07:16;;;;;;;14.13;4.85;;;5.00;99.90;;;;;;5097920;28;20032;-74
2022/11/22 08:09:41;;;;;;;15.75;4.25;;;5.10;99.90;;;;;;5098767;28;20020;-74
2022/11/22 08:12:07;;;;;;;13.98;5.65;;;5.20;99.90;;;;;;5116586;28;20034;-75
2022/11/22 08:14:33;;;;;;;19.67;6.40;;;5.30;99.90;;;;;;5115605;28;20032;-75
2022/11/22 08:16:59;;;;;;;23.45;6.88;;;5.30;99.90;;;;;;5098288;28;20432;-75
2022/11/22 08:19:24;;;;;;;13.05;5.43;;;5.40;99.90;;;;;;5116704;28;20028;-75
2022/11/22 08:21:50;;;;;;;16.67;6.07;;;5.50;99.90;;;;;;5115862;28;20027;-75
2022/11/22 08:24:16;;;;;;;16.55;5.15;;;5.50;99.90;;;;;;5116443;28;20031;-72
2022/11/22 08:26:42;;;;;;;16.30;4.95;;;5.60;99.90;;;;;;5116452;28;20079;-73
2022/11/22 08:29:10;;;;;;;15.85;5.25;;;5.70;99.90;;;;;;5115981;28;20026;-75
2022/11/22 08:31:36;;;;;;;18.20;4.47;;;5.70;99.90;;;;;;5116267;28;20384;-76
2022/11/22 08:34:02;;;;;;;10.80;3.78;;;5.80;99.90;;;;;;5116411;28;20024;-75
2022/11/22 08:36:27;;;;;;;11.18;4.05;;;5.80;99.90;;;;;;5115619;28;20122;-75
2022/11/22 08:38:53;;;;;;;11.20;4.03;;;5.90;99.90;;;;;;5116197;28;20051;-74
2022/11/22 08:41:19;;;;;;;14.52;4.03;;;5.90;99.90;;;;;;5116186;28;20062;-75
2022/11/22 08:43:44;;;;;;;11.45;4.10;;;6.00;99.90;;;;;;5097008;28;20020;-73
2022/11/22 08:46:10;;;;;;;10.48;3.45;;;6.00;99.90;;;;;;5097878;28;20030;-75
2022/11/22 08:48:37;;;;;;;12.75;3.40;;;6.10;99.90;;;;;;5115472;28;20077;-74
2022/11/22 08:51:08;;;;;;;10.13;3.05;;;6.00;99.90;;;;;;5116141;28;20426;-75
2022/11/22 08:53:35;;;;;;;;;;;6.10;99.90;;;;;;5116385;28;20015;-75
2022/11/22 08:56:02;;;;;;;7.38;3.05;;;6.20;99.90;;;;;;5115143;28;19915;-75
2022/11/22 08:58:32;;;;;;;10.07;3.28;;;6.10;99.90;;;;;;5115809;28;20027;-75
2022/11/22 09:01:13;;;;;;;11.55;3.10;;;6.20;99.90;;;;;;5115424;28;20024;-75
2022/11/22 09:03:39;;;;;;;15.23;3.50;;;6.30;99.90;;;;;;5115083;28;20051;-75
2022/11/22 09:06:16;;;;;;;15.35;3.95;;;6.30;99.90;;;;;;5115648;28;20072;-73
2022/11/22 09:08:42;;;;;;;10.30;3.42;;;6.30;99.90;;;;;;5096945;28;20418;-75
2022/11/22 09:11:13;;;;;;;7.47;3.40;;;6.30;99.90;;;;;;5114686;28;20091;-71
2022/11/22 09:13:39;;;;;;;9.10;3.15;;;6.40;99.90;;;;;;5115258;28;20028;-74
2022/11/22 09:16:07;;;;;;;11.52;3.58;;;6.40;99.90;;;;;;5115025;28;20075;-72
2022/11/22 09:18:33;;;;;;;13.07;4.03;;;6.50;99.90;;;;;;5114819;28;20031;-70
2022/11/22 09:21:04;;;;;;;7.25;3.03;;;6.50;99.90;;;;;;5115289;28;20023;-70
2022/11/22 09:23:30;;;;;;;9.57;3.22;;;6.50;99.90;;;;;;5097035;28;20023;-76
2022/11/22 09:26:03;;;;;;;11.65;3.53;;;6.60;99.90;;;;;;5114727;28;20394;-68
2022/11/22 09:28:29;;;;;;;9.15;3.20;;;6.70;99.90;;;;;;5115187;28;20024;-70
2022/11/22 09:31:08;;;;;;;7.93;2.97;;;6.70;99.90;;;;;;5114468;28;20016;-72
2022/11/22 09:33:35;;;;;;;8.77;2.83;;;6.80;99.90;;;;;;5115044;28;20102;-75
2022/11/22 09:36:03;;;;;;;10.20;3.30;;;6.80;99.90;;;;;;5114896;28;20028;-71
2022/11/22 09:38:30;;;;;;;7.47;2.72;;;6.90;99.90;;;;;;5114385;28;20023;-70
2022/11/22 09:40:57;;;;;;;6.45;2.85;;;6.90;99.90;;;;;;5114928;28;20095;-72
2022/11/22 09:43:47;;;;;;;7.32;2.75;;;7.00;99.90;;;;;;5096450;28;20036;-68
2022/11/22 09:47:00;;;;;;;9.18;2.60;;;7.10;99.90;;;;;;5114216;28;20059;-71
2022/11/22 09:49:37;;;;;;;6.10;2.65;;;7.10;99.90;;;;;;5087077;28;20049;-67
2022/11/22 09:52:08;;;;;;;9.18;2.67;;;7.10;99.90;;;;;;5113986;28;20032;-73
2022/11/22 09:54:59;;;;;;;7.68;2.95;;;7.10;99.90;;;;;;5096402;28;20015;-75
2022/11/22 09:57:27;;;;;;;;;;;7.10;99.90;;;;;;5115116;28;20043;-72
2022/11/22 10:00:01;;;;;;;8.32;3.03;;;7.10;99.90;;;;;;5095529;28;19929;-75
2022/11/22 10:02:39;;;;;;;9.88;2.72;;;7.20;99.90;;;;;;5114521;28;20024;-74
2022/11/22 10:05:19;;;;;;;10.85;3.47;;;7.20;99.90;;;;;;5114654;28;20024;-70
2022/11/22 10:07:58;;;;;;;8.18;2.63;;;7.20;99.90;;;;;;5114149;28;20019;-73
2022/11/22 10:10:31;;;;;;;9.88;2.75;;;7.20;99.90;;;;;;5114626;28;20031;-75
2022/11/22 10:13:14;;;;;;;7.65;2.83;;;7.30;99.90;;;;;;5114154;28;20016;-68
2022/11/22 10:15:42;;;;;;;7.85;2.35;;;7.30;99.90;;;;;;5095788;28;20055;-74
2022/11/22 10:18:42;;;;;;;7.70;2.80;;;7.30;99.90;;;;;;5114451;28;20019;-74
2022/11/22 10:21:12;;;;;;;5.80;2.60;;;7.30;99.90;;;;;;5093610;28;20036;-75
2022/11/22 10:23:40;;;;;;;6.55;2.72;;;7.40;99.90;;;;;;5114104;28;20032;-73
2022/11/22 10:26:33;;;;;;;9.52;2.80;;;7.40;99.90;;;;;;5114258;28;20476;-74
2022/11/22 10:29:17;;;;;;;10.70;2.30;;;7.50;99.90;;;;;;5106912;28;20036;-74
2022/11/22 10:31:49;;;;;;;8.75;2.28;;;7.50;99.90;;;;;;5096024;28;20119;-74
2022/11/22 10:34:56;;;;;;;7.80;2.70;;;7.60;99.90;;;;;;5113242;28;20063;-74
2022/11/22 10:37:47;;;;;;;9.90;2.80;;;7.60;99.90;;;;;;5113834;28;20063;-75
2022/11/22 10:40:15;;;;;;;10.05;2.42;;;7.70;99.90;;;;;;5113985;28;20031;-74
2022/11/22 10:43:18;;;;;;;8.68;2.65;;;7.70;99.90;;;;;;5113615;28;20023;-74
2022/11/22 10:45:59;;;;;;;9.25;2.63;;;7.70;99.90;;;;;;5113860;28;20027;-75
2022/11/22 10:48:39;;;;;;;8.38;2.85;;;7.80;99.90;;;;;;5113257;28;20911;-74
2022/11/22 10:51:19;;;;;;;10.32;2.78;;;7.70;99.90;;;;;;5113894;28;20027;-74
2022/11/22 10:54:23;;;;;;;9.10;2.55;;;7.80;99.90;;;;;;5095313;28;20012;-74
2022/11/22 10:57:06;;;;;;;7.40;2.28;;;7.70;99.90;;;;;;5081030;28;20412;-74
2022/11/22 10:59:55;;;;;;;8.15;2.53;;;7.80;99.90;;;;;;5095521;28;20016;-74
2022/11/22 11:02:52;;;;;;;4.82;2.40;;;7.90;99.90;;;;;;5102031;28;20031;-74
2022/11/22 11:05:21;;;;;;;2.92;1.67;;;7.90;99.90;;;;;;5114074;28;20055;-74
2022/11/22 11:07:50;;;;;;;7.43;2.28;;;7.90;99.90;;;;;;5113294;28;20024;-74
2022/11/22 11:10:21;;;;;;;4.18;1.85;;;8.00;99.90;;;;;;5113126;28;20099;-74
2022/11/22 11:12:57;;;;;;;5.10;2.78;;;8.00;99.90;;;;;;5113511;28;20034;-74
2022/11/22 11:15:33;;;;;;;6.65;2.58;;;8.00;99.90;;;;;;5095054;28;20072;-75
2022/11/22 11:18:07;;;;;;;7.65;2.20;;;8.00;99.90;;;;;;5112796;28;20080;-73
2022/11/22 11:20:37;;;;;;;6.15;2.08;;;8.10;99.90;;;;;;5113345;28;20443;-70
2022/11/22 11:23:03;;;;;;;7.32;1.98;;;8.10;99.90;;;;;;5094842;28;20101;-73
2022/11/22 11:25:39;;;;;;;7.95;2.40;;;8.00;99.90;;;;;;5112947;28;20383;-67
2022/11/22 11:28:10;;;;;;;9.35;2.40;;;8.00;99.90;;;;;;5113269;28;20015;-70
2022/11/22 11:30:39;;;;;;;6.90;2.70;;;8.00;99.90;;;;;;5112638;28;20095;-68
2022/11/22 11:33:18;;;;;;;6.10;2.22;;;8.00;99.90;;;;;;5116823;28;20488;-71
2022/11/22 11:35:46;;;;;;;5.90;2.38;;;8.00;99.90;;;;;;5117367;28;20036;-73
2022/11/22 11:38:31;;;;;;;4.32;2.13;;;7.90;99.90;;;;;;5116805;28;20016;-73
2022/11/22 11:40:58;;;;;;;8.30;2.53;;;8.00;99.90;;;;;;5117499;28;20080;-73
2022/11/22 11:43:24;;;;;;;5.43;1.85;;;7.90;99.90;;;;;;5117503;28;20069;-72
2022/11/22 11:45:50;;;;;;;8.07;2.50;;;7.90;99.90;;;;;;5116518;28;20491;-69
2022/11/22 11:48:36;;;;;;;3.92;1.80;;;7.90;99.90;;;;;;5117615;28;20536;-71
2022/11/22 11:51:35;;;;;;;5.63;2.00;;;8.00;99.90;;;;;;5117248;28;20069;-70
2022/11/22 11:54:08;;;;;;;7.30;2.63;;;8.00;99.90;;;;;;5095291;28;20051;-73
2022/11/22 11:56:54;;;;;;;3.33;1.70;;;8.10;99.90;;;;;;5116945;28;20084;-73
2022/11/22 11:59:21;;;;;;;5.22;2.30;;;8.10;99.90;;;;;;5116582;28;20051;-73
2022/11/22 12:02:11;;;;;;;5.25;2.40;;;8.20;99.90;;;;;;5116984;28;20019;-74
2022/11/22 12:04:56;;;;;;;3.58;1.88;;;8.30;99.90;;;;;;5117073;28;20086;-74
2022/11/22 12:07:37;;;;;;;5.50;1.67;;;8.40;99.90;;;;;;5098039;28;20104;-75
2022/11/22 12:10:32;;;;;;;6.85;1.88;;;8.40;99.90;;;;;;5116927;28;20050;-74
2022/11/22 12:13:37;;;;;;;8.15;2.30;;;8.50;99.90;;;;;;5097665;28;20490;-75
2022/11/22 12:16:27;;;;;;;4.10;2.00;;;8.50;99.90;;;;;;5116489;28;20104;-75
2022/11/22 12:19:11;;;;;;;6.93;2.20;;;8.50;99.90;;;;;;5098220;28;20024;-75
2022/11/22 12:22:08;;;;;;;6.35;1.95;;;8.50;99.90;;;;;;5115865;28;20293;-75
2022/11/22 12:24:44;;;;;;;5.60;1.80;;;8.40;99.90;;;;;;5116848;28;20032;-75
2022/11/22 12:27:10;;;;;;;6.85;2.08;;;8.40;99.90;;;;;;5115847;28;20032;-75
2022/11/22 12:29:39;;;;;;;4.53;2.25;;;8.40;99.90;;;;;;5116567;28;20027;-75
2022/11/22 12:32:31;;;;;;;6.47;2.10;;;8.30;99.90;;;;;;5113891;28;20023;-74
2022/11/22 12:35:06;;;;;;;7.65;2.20;;;8.30;99.90;;;;;;5116449;28;20541;-74
2022/11/22 12:37:42;;;;;;;3.42;1.73;;;8.30;99.90;;;;;;5109961;28;20114;-73
2022/11/22 12:40:24;;;;;;;6.50;2.35;;;8.40;99.90;;;;;;5096704;28;20047;-74
2022/11/22 12:42:59;;;;;;;6.35;2.35;;;8.40;99.90;;;;;;5089610;28;20039;-74
2022/11/22 12:45:31;;;;;;;4.78;2.00;;;8.40;99.90;;;;;;5104137;28;20502;-74
2022/11/22 12:48:02;;;;;;;6.32;1.80;;;8.40;99.90;;;;;;5114757;28;20068;-80
2022/11/22 12:50:37;;;;;;;4.90;1.90;;;8.40;99.90;;;;;;5107149;28;20120;-79
2022/11/22 12:53:14;;;;;;;1.52;1.17;;;8.40;99.90;;;;;;5083192;28;20342;-77
2022/11/22 12:56:05;;;;;;;1.65;0.82;;;8.40;99.90;;;;;;5092841;28;20066;-73
2022/11/22 12:59:09;;;;;;;2.65;0.93;;;8.40;99.90;;;;;;5079407;28;20090;-74
2022/11/22 13:01:44;;;;;;;1.85;1.05;;;8.30;99.90;;;;;;5087037;28;20051;-75
2022/11/22 13:04:09;;;;;;;1.80;0.98;;;8.30;99.90;;;;;;5113950;28;20027;-79
2022/11/22 13:06:50;;;;;;;5.35;1.35;;;8.30;99.90;;;;;;5114699;28;20149;-77
2022/11/22 13:09:29;;;;;;;3.15;1.30;;;8.30;99.90;;;;;;5112860;28;20032;-78
2022/11/22 13:12:00;;;;;;;3.67;0.98;;;8.30;99.90;;;;;;5105621;28;20055;-77
2022/11/22 13:14:41;;;;;;;3.72;1.38;;;8.30;99.90;;;;;;5093158;28;20480;-80
2022/11/22 13:17:13;;;;;;;3.25;1.20;;;8.30;99.90;;;;;;5094593;28;20119;-75
2022/11/22 13:20:07;;;;;;;2.30;1.17;;;8.30;99.90;;;;;;5097705;28;20605;-80
2022/11/22 13:22:38;;;;;;;1.80;1.20;;;8.30;99.90;;;;;;5110892;28;20028;-79